Detall de PIREP

Printer-friendly versionPDF version

[2013/05/06 10:14:00]
Flight IATA:CT2100
Pilot Number:042
Company ICAO:CAT
Aircraft Type:B738/F
PAX:98
Departing Airport: LEVC
Destination Airport: LEAS
Alternate Airport:LEMD
Online: VATSIM
Route:CENTA/N380F230 A33 PRADO/N470F330 UN733 ZMR UM30 ROVAK R107 XONDA
Flight Level:F330
No Slew and time accel
No pause
Crash detect
Detect pilot in Cockpit between each 30 and 45 minutes
10:14 Zero fuel Weight: 115601 Lbs, Fuel Weight: 46049 Lbs
10:14 VATSIM:LEVC 061000Z 13003KT 070V190 CAVOK 23/09 Q1020 NOSIG
10:14 VATSIM:LEAS 061000Z 33003KT 280V020 8000 NSC 13/11 Q1019 NOSIG
10:14 VOICE CATALONIAN
10:18 Parking Brakes off
10:24 Take-off
10:24 Take off Weight: 160736 Lbs
10:24 Wind: 210º @ 005 Knots Heading: 117º
10:24 POS N39º 29´ 11´´ W000º 28´ 26´´
10:24 Gear Up: 176 Knots
10:24 Flaps:5 at 176 Knots
10:24 Flaps:4 at 182 Knots
10:24 Flaps:3 at 152 Knots
10:24 Flaps:2 at 149 Knots
10:25 Flaps:1 at 216 Knots
10:25 Flaps:0 at 216 Knots
10:39 Wind:315º@040 Knots Heading: 300º Ground Speed: 392 Knots Altitude 23628 ft
10:45 TOC
10:45 Fuel Weight: 40848 Lb
10:45 TOD
10:45 Fuel Weight: 40847 Lb
10:46 TOC
10:46 Fuel Weight: 40842 Lb
10:54 Wind:294º@079 Knots Heading: 296º Ground Speed: 386 Knots Altitude 33182 ft
11:09 Wind:286º@068 Knots Heading: 294º Ground Speed: 397 Knots Altitude 33228 ft
11:14 TOD
11:14 Fuel Weight: 37883 Lb
11:17 Flaps:1 at 332 Knots
11:17 Flaps:0 at 334 Knots
11:24 Wind:244º@013 Knots Heading: 350º Ground Speed: 325 Knots Altitude 10442 ft
11:26 Flaps:1 at 213 Knots
11:26 Flaps:2 at 211 Knots
11:26 Flaps:1 at 206 Knots
11:30 Flaps:2 at 194 Knots
11:31 Flaps:3 at 175 Knots
11:31 Flaps:5 at 176 Knots
11:33 Gear Down: 166 Knots
11:35 Flaps:6 at 169 Knots
11:35 Flaps:7 at 167 Knots
11:35 Flaps:8 at 148 Knots
11:38 TouchDown:Rate -246 ft/min Speed: 124 Knots
11:39 VATSIM:LEAS 061130Z 30005KT 240V360 7000 SCT010 13/12 Q1019 NOSIG
11:39 Land
11:39 Wind:235º@015 Knots
11:39 Heading: 289º
11:39 Flight Duration: 01:15
11:39 Landing Weight: 151812 Lbs
11:39 POS N43º 33´ 56´´ W006º 02´ 37´´
11:42 Parking brakes on
11:42 Block to Block Duration: 01:24
11:42 Final Fuel: 35866 Lbls
11:42 Spent Fuel: 10183 Lbls
11:42 Flight Length: 428 NM
11:42 TOD Land Length: 114 NM

Exportar CSV

Powered by Drupal - Modified by Danger4k